Time;durP1;ratioP1;P1;durP2;ratioP2;P2;SDS_P1;SDS_P2;PMS_P1;PMS_P2;Temp;Humidity;BMP_temperature;BMP_pressure;BME280_temperature;BME280_humidity;BME280_pressure;Samples;Min_cycle;Max_cycle;Signal;HPM_P1;HPM_P2
2023/03/26 00:00:01;;;;;;;1.10;1.10;;;;;;;25.87;35.58;99055.16;1821344;78;28275;-54
2023/03/26 00:02:53;;;;;;;1.17;1.17;;;;;;;25.89;35.54;99050.20;1809780;78;28332;-53
2023/03/26 00:05:42;;;;;;;1.20;1.20;;;;;;;25.91;35.55;99045.80;1768559;79;28385;-56
2023/03/26 00:08:30;;;;;;;1.10;1.10;;;;;;;25.90;35.48;99052.42;1791621;79;28471;-54
2023/03/26 00:11:21;;;;;;;1.02;1.02;;;;;;;25.89;35.53;99059.00;1825747;78;33039;-52
2023/03/26 00:14:12;;;;;;;0.90;0.90;;;;;;;25.90;35.54;99051.88;1814718;77;28187;-50
2023/03/26 00:17:01;;;;;;;1.07;1.07;;;;;;;25.91;35.47;99043.88;1830987;77;28215;-53
2023/03/26 00:19:49;;;;;;;1.20;1.20;;;;;;;25.90;35.52;99046.38;1825631;77;28166;-54
2023/03/26 00:22:38;;;;;;;1.20;1.20;;;;;;;25.90;35.51;99021.61;1833641;77;28229;-53
2023/03/26 00:25:26;;;;;;;3.10;1.20;;;;;;;25.90;35.55;99018.86;1831368;77;30580;-55
2023/03/26 00:28:15;;;;;;;1.02;1.02;;;;;;;25.93;35.46;99022.42;1837672;77;28159;-55
2023/03/26 00:31:06;;;;;;;1.00;1.00;;;;;;;25.92;35.48;99033.71;1826110;77;28218;-51
2023/03/26 00:33:55;;;;;;;1.05;1.05;;;;;;;25.92;35.50;99026.29;1833372;77;28167;-56
2023/03/26 00:36:45;;;;;;;2.15;1.10;;;;;;;25.93;35.50;99010.04;1807225;78;33179;-56
2023/03/26 00:39:36;;;;;;;1.00;1.00;;;;;;;25.92;35.47;99009.78;1832807;77;28284;-52
2023/03/26 00:42:23;;;;;;;1.22;1.15;;;;;;;25.91;35.56;99015.53;1831765;77;28236;-54
2023/03/26 00:45:12;;;;;;;1.03;1.03;;;;;;;25.88;35.57;99022.39;1821212;77;28121;-54
2023/03/26 00:48:00;;;;;;;0.93;0.93;;;;;;;25.90;35.57;99024.36;1835883;77;30286;-54
2023/03/26 00:50:50;;;;;;;1.20;1.20;;;;;;;25.89;35.58;99009.47;1823070;77;28248;-53
2023/03/26 00:53:40;;;;;;;2.80;1.10;;;;;;;25.90;35.57;98996.84;1832565;77;28182;-53
2023/03/26 00:56:28;;;;;;;0.93;0.93;;;;;;;25.91;35.59;99005.90;1831061;77;28260;-55
2023/03/26 00:59:17;;;;;;;0.90;0.90;;;;;;;25.92;35.57;98997.94;1830502;77;28083;-55
2023/03/26 01:02:09;;;;;;;0.93;0.93;;;;;;;25.89;35.58;98990.20;1824803;77;28630;-53
2023/03/26 01:05:01;;;;;;;1.30;1.00;;;;;;;25.88;35.57;98990.75;1826987;77;28120;-54
2023/03/26 01:07:49;;;;;;;0.93;0.93;;;;;;;25.89;35.59;98993.80;1819471;77;28191;-56
2023/03/26 01:10:37;;;;;;;1.10;1.10;;;;;;;25.88;35.60;98981.12;1822332;77;28179;-52
2023/03/26 01:13:26;;;;;;;0.97;0.97;;;;;;;25.90;35.59;98980.33;1839296;77;28100;-56
2023/03/26 01:16:20;;;;;;;1.20;1.10;;;;;;;25.91;35.56;98986.09;1834339;77;28175;-52
2023/03/26 01:19:21;;;;;;;0.98;0.98;;;;;;;25.89;35.60;98997.92;1816819;77;28136;-56
2023/03/26 01:22:13;;;;;;;0.93;0.93;;;;;;;25.91;35.57;99010.86;1812729;77;28139;-53
2023/03/26 01:25:02;;;;;;;0.90;0.90;;;;;;;25.89;35.62;99023.23;1836056;77;28172;-54
2023/03/26 01:27:54;;;;;;;1.00;1.00;;;;;;;25.90;35.55;99010.60;1837147;77;28137;-55
2023/03/26 01:31:00;;;;;;;0.90;0.90;;;;;;;25.91;35.55;99002.61;1820581;77;28108;-54
2023/03/26 01:33:50;;;;;;;1.00;1.00;;;;;;;25.90;35.55;98991.34;1817809;77;28116;-54
2023/03/26 01:37:03;;;;;;;0.90;0.90;;;;;;;25.89;35.56;99001.22;1833888;77;28093;-54
2023/03/26 01:39:55;;;;;;;0.87;0.87;;;;;;;25.87;35.61;99006.16;1830893;77;28232;-52
2023/03/26 01:42:50;;;;;;;0.93;0.93;;;;;;;25.86;35.62;98990.19;1834560;77;28206;-59
2023/03/26 01:45:41;;;;;;;1.00;1.00;;;;;;;25.87;35.60;98984.98;1832491;77;28233;-54
2023/03/26 01:48:32;;;;;;;1.02;1.02;;;;;;;25.91;35.58;99002.61;1830717;77;28160;-53
2023/03/26 01:51:29;;;;;;;0.83;0.83;;;;;;;25.88;35.58;98998.20;1812129;77;28124;-54
2023/03/26 01:54:20;;;;;;;0.95;0.95;;;;;;;25.87;35.58;99002.03;1836705;77;28097;-53
2023/03/26 01:57:15;;;;;;;0.80;0.80;;;;;;;25.87;35.61;98991.86;1832368;77;28132;-54
2023/03/26 02:00:12;;;;;;;1.70;0.90;;;;;;;25.87;35.61;98983.61;1813010;78;28218;-56
2023/03/26 02:03:17;;;;;;;0.90;0.90;;;;;;;25.88;35.55;98974.23;1815702;77;28141;-54
2023/03/26 02:06:07;;;;;;;1.10;1.10;;;;;;;25.86;35.60;98973.69;1828383;77;28151;-57
2023/03/26 02:09:04;;;;;;;0.80;0.80;;;;;;;25.85;35.63;98963.79;1829951;77;28199;-56
2023/03/26 02:11:55;;;;;;;1.10;1.10;;;;;;;25.87;35.64;98966.27;1830467;77;28149;-52
2023/03/26 02:14:45;;;;;;;0.98;0.98;;;;;;;25.85;35.62;98961.58;1829043;77;28186;-56
2023/03/26 02:17:35;;;;;;;0.80;0.80;;;;;;;25.88;35.58;98961.05;1806467;78;28186;-53
2023/03/26 02:20:24;;;;;;;1.00;1.00;;;;;;;25.87;35.58;98965.72;1836479;77;28181;-57
2023/03/26 02:23:13;;;;;;;0.88;0.88;;;;;;;25.86;35.58;98958.55;1825521;78;28289;-54
2023/03/26 02:26:09;;;;;;;1.25;1.05;;;;;;;25.87;35.58;98962.14;1835081;77;28062;-57
2023/03/26 02:29:00;;;;;;;0.90;0.90;;;;;;;25.87;35.54;98956.63;1816383;77;35053;-54
2023/03/26 02:31:49;;;;;;;0.90;0.90;;;;;;;25.90;35.50;98954.73;1831090;77;28212;-56
2023/03/26 02:34:39;;;;;;;0.80;0.80;;;;;;;25.90;35.51;98956.94;1831175;77;28563;-54
2023/03/26 02:37:29;;;;;;;0.80;0.80;;;;;;;25.90;35.50;98963.81;1832193;77;28221;-56
2023/03/26 02:40:21;;;;;;;0.80;0.80;;;;;;;25.88;35.47;98967.36;1816888;77;28347;-52
2023/03/26 02:43:09;;;;;;;0.90;0.90;;;;;;;25.88;35.53;98973.44;1831064;77;28120;-51
2023/03/26 02:45:59;;;;;;;0.90;0.90;;;;;;;25.89;35.49;98963.52;1831014;77;28101;-53
2023/03/26 02:48:52;;;;;;;0.90;0.90;;;;;;;25.90;35.45;98955.56;1842484;77;28188;-52
2023/03/26 02:51:41;;;;;;;1.02;1.00;;;;;;;25.88;35.49;98934.91;1816795;77;28098;-55
2023/03/26 02:54:33;;;;;;;1.00;1.00;;;;;;;25.90;35.53;98945.93;1837894;77;28186;-51
2023/03/26 02:57:41;;;;;;;1.17;0.90;;;;;;;25.90;35.49;98949.22;1837013;77;28158;-52
2023/03/26 03:00:35;;;;;;;0.85;0.85;;;;;;;25.89;35.50;98944.80;1827302;77;28098;-54
2023/03/26 03:03:27;;;;;;;0.70;0.70;;;;;;;25.90;35.55;98939.05;1832698;77;28187;-51
2023/03/26 03:06:25;;;;;;;0.90;0.90;;;;;;;25.86;35.57;98931.58;1807934;78;28133;-53
2023/03/26 03:09:14;;;;;;;1.10;0.90;;;;;;;25.87;35.60;98920.31;1824215;78;28167;-55
2023/03/26 03:12:06;;;;;;;0.80;0.80;;;;;;;25.84;35.60;98917.27;1836353;77;28125;-55
2023/03/26 03:14:55;;;;;;;1.00;1.00;;;;;;;25.86;35.60;98901.30;1836953;77;28146;-55
2023/03/26 03:17:43;;;;;;;0.90;0.90;;;;;;;25.85;35.55;98882.62;1834091;77;28150;-53
2023/03/26 03:20:33;;;;;;;0.85;0.85;;;;;;;25.89;35.54;98883.72;1838262;77;28224;-56
2023/03/26 03:23:21;;;;;;;0.90;0.90;;;;;;;25.84;35.52;98878.20;1849844;77;28135;-54
2023/03/26 03:26:14;;;;;;;0.90;0.90;;;;;;;25.86;35.56;98883.42;1840687;77;28201;-56
2023/03/26 03:29:04;;;;;;;0.65;0.65;;;;;;;25.82;35.54;98872.69;1818975;78;28236;-52
2023/03/26 03:31:54;;;;;;;0.82;0.82;;;;;;;25.81;35.64;98865.55;1838737;77;28107;-56
2023/03/26 03:34:50;;;;;;;0.70;0.70;;;;;;;25.81;35.62;98866.34;1841966;77;28120;-54
2023/03/26 03:37:39;;;;;;;0.85;0.85;;;;;;;25.82;35.58;98859.77;1842251;77;28124;-55
2023/03/26 03:40:28;;;;;;;1.20;0.70;;;;;;;25.82;35.61;98858.92;1843439;77;28307;-55
2023/03/26 03:43:16;;;;;;;0.90;0.90;;;;;;;25.81;35.55;98847.09;1847108;77;28206;-54
2023/03/26 03:46:12;;;;;;;0.78;0.78;;;;;;;25.82;35.60;98846.00;1845083;77;28296;-56
2023/03/26 03:49:03;;;;;;;0.78;0.78;;;;;;;25.83;35.52;98833.91;1833529;78;28189;-53
2023/03/26 03:51:53;;;;;;;0.80;0.80;;;;;;;25.83;35.61;98834.45;1806903;79;28313;-59
2023/03/26 03:54:43;;;;;;;0.82;0.82;;;;;;;25.82;35.61;98817.12;1815679;78;28229;-51
2023/03/26 03:57:45;;;;;;;0.90;0.90;;;;;;;25.81;35.58;98812.70;1846596;77;28502;-53
2023/03/26 04:00:40;;;;;;;1.20;0.80;;;;;;;25.78;35.61;98807.76;1846873;77;28153;-51
2023/03/26 04:03:45;;;;;;;0.90;0.90;;;;;;;25.79;35.58;98809.39;1849806;77;28146;-54
2023/03/26 04:06:34;;;;;;;0.80;0.80;;;;;;;25.77;35.58;98818.47;1843776;77;28112;-54
2023/03/26 04:09:22;;;;;;;0.70;0.70;;;;;;;25.78;35.64;98818.77;1824391;77;28110;-55
2023/03/26 04:12:13;;;;;;;0.80;0.80;;;;;;;25.81;35.55;98809.14;1842144;77;28160;-55
2023/03/26 04:15:05;;;;;;;0.80;0.80;;;;;;;25.80;35.53;98796.47;1841904;77;28164;-53
2023/03/26 04:17:54;;;;;;;1.80;0.90;;;;;;;25.78;35.60;98795.92;1840981;77;28156;-53
2023/03/26 04:20:49;;;;;;;0.80;0.80;;;;;;;25.79;35.66;98779.70;1821984;77;28236;-56
2023/03/26 04:23:36;;;;;;;0.62;0.62;;;;;;;25.81;35.61;98784.38;1826849;76;28561;-57
2023/03/26 04:26:29;;;;;;;0.70;0.70;;;;;;;25.79;35.62;98784.63;1836942;77;28105;-53
2023/03/26 04:29:24;;;;;;;0.80;0.80;;;;;;;25.82;35.64;98776.38;1835988;77;28145;-56
2023/03/26 04:32:21;;;;;;;0.80;0.80;;;;;;;25.84;35.57;98768.14;1816559;77;28077;-54
2023/03/26 04:35:13;;;;;;;0.80;0.80;;;;;;;25.81;35.56;98768.67;1811957;77;28215;-53
2023/03/26 04:38:05;;;;;;;0.87;0.87;;;;;;;25.77;35.56;98763.45;1832993;77;28114;-55
2023/03/26 04:40:58;;;;;;;0.80;0.80;;;;;;;25.79;35.68;98760.45;1830961;77;28078;-52
2023/03/26 04:43:49;;;;;;;0.80;0.53;;;;;;;25.78;35.68;98762.36;1832579;76;28137;-54
2023/03/26 04:46:42;;;;;;;0.70;0.70;;;;;;;25.77;35.66;98750.23;1832762;77;28119;-55
2023/03/26 04:49:32;;;;;;;0.72;0.72;;;;;;;25.74;35.71;98747.48;1831117;77;28159;-55
2023/03/26 04:52:20;;;;;;;0.80;0.80;;;;;;;25.77;35.71;98738.69;1841172;77;28070;-56
2023/03/26 04:55:33;;;;;;;0.60;0.60;;;;;;;25.77;35.64;98743.36;1837155;77;33083;-54
2023/03/26 04:58:29;;;;;;;0.70;0.70;;;;;;;25.75;35.63;98743.64;1835296;77;28129;-53
2023/03/26 05:01:18;;;;;;;0.72;0.72;;;;;;;25.76;35.64;98719.72;1816112;77;28135;-54
2023/03/26 05:04:07;;;;;;;0.73;0.73;;;;;;;25.76;35.68;98721.92;1842686;77;28117;-50
2023/03/26 05:06:57;;;;;;;0.80;0.80;;;;;;;25.71;35.67;98717.79;1831450;77;28131;-53
2023/03/26 05:09:48;;;;;;;0.82;0.82;;;;;;;25.77;35.69;98722.19;1842608;77;28192;-55
2023/03/26 05:12:38;;;;;;;0.88;0.88;;;;;;;25.76;35.70;98715.05;1813371;77;28178;-56
2023/03/26 05:15:28;;;;;;;0.50;0.50;;;;;;;25.76;35.63;98713.67;1831414;77;28148;-54
2023/03/26 05:18:27;;;;;;;0.65;0.65;;;;;;;25.76;35.69;98705.96;1808366;77;28258;-53
2023/03/26 05:21:15;;;;;;;0.60;0.60;;;;;;;25.75;35.71;98709.25;1832546;77;28215;-52
2023/03/26 05:24:05;;;;;;;0.60;0.60;;;;;;;25.79;35.65;98704.05;1795631;79;28220;-53
2023/03/26 05:26:53;;;;;;;0.70;0.70;;;;;;;25.77;35.69;98708.43;1834000;77;28075;-51
2023/03/26 05:29:44;;;;;;;0.70;0.70;;;;;;;25.74;35.69;98719.17;1836728;77;28143;-54
2023/03/26 05:32:33;;;;;;;0.60;0.60;;;;;;;25.75;35.68;98739.52;1833080;77;28105;-54
2023/03/26 05:35:22;;;;;;;0.70;0.70;;;;;;;25.75;35.77;98741.44;1813163;77;28144;-52
2023/03/26 05:38:11;;;;;;;0.70;0.70;;;;;;;25.74;35.71;98715.84;1828290;77;28143;-53
2023/03/26 05:41:06;;;;;;;0.60;0.60;;;;;;;25.76;35.67;98716.97;1830884;77;38447;-54
2023/03/26 05:43:55;;;;;;;0.72;0.72;;;;;;;25.78;35.67;98712.84;1835330;77;28198;-51
2023/03/26 05:46:45;;;;;;;0.70;0.70;;;;;;;25.76;35.74;98719.72;1814348;77;28159;-52
2023/03/26 05:49:35;;;;;;;0.70;0.70;;;;;;;25.74;35.74;98715.05;1829134;77;28227;-56
2023/03/26 05:52:24;;;;;;;0.80;0.80;;;;;;;25.72;35.72;98695.23;1828582;77;28201;-55
2023/03/26 05:55:32;;;;;;;0.67;0.67;;;;;;;25.75;35.70;98692.75;1782268;80;28300;-55
2023/03/26 05:58:29;;;;;;;0.75;0.75;;;;;;;25.74;35.65;98693.03;1817568;77;38431;-56
2023/03/26 06:01:35;;;;;;;0.70;0.70;;;;;;;25.74;35.70;98685.58;1808805;78;28131;-55
2023/03/26 06:04:30;;;;;;;0.60;0.60;;;;;;;25.70;35.75;98676.78;1781192;78;28193;-56
2023/03/26 06:07:36;;;;;;;0.60;0.60;;;;;;;25.69;35.74;98683.40;1836972;77;28063;-50
2023/03/26 06:10:32;;;;;;;0.60;0.60;;;;;;;25.71;35.73;98673.77;1831561;77;28062;-56
2023/03/26 06:13:20;;;;;;;0.50;0.50;;;;;;;25.72;35.69;98671.86;1836954;77;28156;-51
2023/03/26 06:16:12;;;;;;;0.70;0.70;;;;;;;25.71;35.70;98679.82;1834252;77;28125;-56
2023/03/26 06:19:02;;;;;;;0.65;0.65;;;;;;;25.72;35.62;98707.62;1831665;77;28266;-55
2023/03/26 06:21:52;;;;;;;0.62;0.62;;;;;;;25.70;35.70;98716.12;1831230;77;28153;-58
2023/03/26 06:24:42;;;;;;;0.78;0.78;;;;;;;25.71;35.67;98718.33;1842280;77;28102;-55
2023/03/26 06:27:44;;;;;;;0.80;0.80;;;;;;;25.71;35.67;98716.41;1834283;77;28116;-55
2023/03/26 06:30:50;;;;;;;1.07;0.62;;;;;;;25.70;35.70;98716.12;1764205;81;28288;-59
2023/03/26 06:33:58;;;;;;;0.90;0.80;;;;;;;25.71;35.67;98721.91;1819104;77;28183;-57
2023/03/26 06:36:47;;;;;;;0.60;0.60;;;;;;;25.62;35.68;98711.72;1837064;77;28156;-52
2023/03/26 06:39:36;;;;;;;0.70;0.60;;;;;;;25.72;35.63;98726.30;1837009;77;28168;-53
2023/03/26 06:42:35;;;;;;;0.60;0.60;;;;;;;25.72;35.67;98707.05;1837120;77;28126;-53
2023/03/26 06:45:25;;;;;;;0.70;0.70;;;;;;;25.72;35.65;98696.62;1825651;78;28122;-56
2023/03/26 06:48:18;;;;;;;0.50;0.50;;;;;;;25.73;35.61;98706.50;1793739;77;28081;-56
2023/03/26 06:51:09;;;;;;;0.70;0.70;;;;;;;25.72;35.65;98728.25;1827498;77;28177;-52
2023/03/26 06:54:17;;;;;;;0.60;0.60;;;;;;;25.68;35.68;98715.58;1836949;77;28071;-55
2023/03/26 06:57:12;;;;;;;0.72;0.72;;;;;;;25.67;35.71;98700.16;1836776;77;38450;-55
2023/03/26 07:00:13;;;;;;;0.75;0.75;;;;;;;25.67;35.71;98686.41;1836277;77;28210;-54
2023/03/26 07:03:19;;;;;;;0.53;0.53;;;;;;;25.67;35.72;98704.28;1821271;77;28089;-53
2023/03/26 07:06:26;;;;;;;0.50;0.50;;;;;;;25.67;35.69;98706.23;1818624;77;28201;-54
2023/03/26 07:09:34;;;;;;;0.50;0.50;;;;;;;25.64;35.75;98695.22;1835113;77;28176;-55
2023/03/26 07:12:41;;;;;;;1.10;0.70;;;;;;;25.60;35.72;98675.42;1832247;77;28124;-58
2023/03/26 07:15:49;;;;;;;0.60;0.60;;;;;;;25.64;35.74;98675.14;1811228;77;28203;-55
2023/03/26 07:18:55;;;;;;;0.70;0.70;;;;;;;25.63;35.78;98675.69;1828363;77;28237;-53
2023/03/26 07:21:45;;;;;;;0.45;0.45;;;;;;;25.61;35.81;98690.27;1830349;77;28066;-53
2023/03/26 07:24:52;;;;;;;0.70;0.70;;;;;;;25.64;35.80;98716.40;1828840;76;28205;-54
2023/03/26 07:28:03;;;;;;;0.60;0.60;;;;;;;25.65;35.83;98718.86;1831753;77;28037;-53
2023/03/26 07:31:33;;;;;;;0.60;0.60;;;;;;;25.66;35.75;98732.08;1831834;77;28176;-54
2023/03/26 07:34:55;;;;;;;1.30;0.60;;;;;;;25.62;35.87;98724.09;1758069;78;28114;-56
2023/03/26 07:37:54;;;;;;;0.60;0.60;;;;;;;25.59;35.96;98726.84;1837072;77;30106;-53
2023/03/26 07:41:28;;;;;;;0.55;0.55;;;;;;;25.59;35.99;98726.84;1836972;77;28143;-56
2023/03/26 07:44:46;;;;;;;0.50;0.50;;;;;;;25.59;35.94;98719.97;1837051;77;28236;-58
2023/03/26 07:47:43;;;;;;;0.47;0.47;;;;;;;25.60;35.99;98724.92;1836722;77;28182;-54
2023/03/26 07:50:40;;;;;;;0.40;0.40;;;;;;;25.58;35.90;98712.00;1836922;77;28088;-57
2023/03/26 07:53:30;;;;;;;0.60;0.60;;;;;;;25.61;35.92;98703.19;1825682;78;28489;-55
2023/03/26 07:56:53;;;;;;;0.70;0.70;;;;;;;25.63;35.90;98718.86;1828897;77;28277;-55
2023/03/26 07:59:59;;;;;;;0.60;0.60;;;;;;;25.67;35.83;98716.66;1766357;78;28324;-53
2023/03/26 08:03:06;;;;;;;0.55;0.55;;;;;;;25.63;35.89;98705.11;1772521;80;28431;-57
2023/03/26 08:06:30;;;;;;;0.60;0.60;;;;;;;25.62;35.85;98718.60;1742771;81;28319;-54
2023/03/26 08:09:32;;;;;;;0.65;0.65;;;;;;;25.60;35.86;98729.85;1711787;80;28240;-55
2023/03/26 08:13:01;;;;;;;1.10;0.40;;;;;;;25.59;35.88;98730.97;1843580;76;28449;-55
2023/03/26 08:16:01;;;;;;;0.60;0.60;;;;;;;25.59;35.91;98739.77;1843184;76;28024;-57
2023/03/26 08:18:59;;;;;;;0.50;0.50;;;;;;;25.59;35.88;98746.64;1824993;77;28295;-59
2023/03/26 08:22:00;;;;;;;0.53;0.50;;;;;;;25.59;35.92;98750.22;1824477;78;28258;-53
2023/03/26 08:24:54;;;;;;;0.85;0.60;;;;;;;25.60;35.88;98746.36;1837364;77;28172;-56
2023/03/26 08:27:46;;;;;;;0.70;0.70;;;;;;;25.61;35.76;98736.19;1935716;73;28167;-56
2023/03/26 08:30:35;;;;;;;0.60;0.60;;;;;;;25.62;35.38;98740.06;1845097;76;28077;-55
2023/03/26 08:33:26;;;;;;;0.70;0.70;;;;;;;25.59;35.10;98746.09;1861567;76;28059;-55
2023/03/26 08:36:15;;;;;;;0.68;0.68;;;;;;;25.56;34.90;98745.26;1861525;76;28246;-54
2023/03/26 08:39:03;;;;;;;0.80;0.80;;;;;;;25.58;34.49;98751.87;1863028;76;28133;-55
2023/03/26 08:42:28;;;;;;;0.90;0.90;;;;;;;25.59;34.09;98746.64;1835789;77;28194;-55
2023/03/26 08:45:26;;;;;;;0.90;0.90;;;;;;;25.59;33.68;98734.27;1927050;73;28192;-56
2023/03/26 08:48:50;;;;;;;0.70;0.70;;;;;;;25.50;33.92;98729.02;1883076;74;28087;-55
2023/03/26 08:51:56;;;;;;;0.80;0.80;;;;;;;25.51;34.20;98736.99;1861606;75;28614;-56
2023/03/26 08:55:10;;;;;;;0.55;0.55;;;;;;;25.41;34.41;98736.38;1912342;74;28193;-56
2023/03/26 08:58:28;;;;;;;0.70;0.70;;;;;;;25.43;34.49;98740.26;1911658;73;28087;-52
2023/03/26 09:01:37;;;;;;;0.78;0.78;;;;;;;25.43;34.49;98740.26;1915451;72;28076;-56
2023/03/26 09:04:48;;;;;;;1.70;0.60;;;;;;;25.47;34.60;98740.02;1866633;74;28172;-57
2023/03/26 09:07:40;;;;;;;0.82;0.82;;;;;;;25.51;34.46;98736.99;1946126;73;28068;-55
2023/03/26 09:11:06;;;;;;;0.60;0.60;;;;;;;25.53;34.55;98740.86;1943368;73;28146;-57
2023/03/26 09:14:09;;;;;;;0.70;0.70;;;;;;;25.55;34.60;98750.50;1944044;73;28064;-59
2023/03/26 09:17:04;;;;;;;0.75;0.75;;;;;;;25.50;34.71;98755.98;1945063;73;28079;-53
2023/03/26 09:20:20;;;;;;;0.87;0.87;;;;;;;25.52;34.84;98777.16;1932230;73;28213;-56
2023/03/26 09:23:39;;;;;;;0.78;0.78;;;;;;;25.54;34.88;98787.88;1920122;73;28788;-55
2023/03/26 09:26:52;;;;;;;0.80;0.80;;;;;;;25.52;34.57;98792.28;1934227;73;28116;-56
2023/03/26 09:30:04;;;;;;;0.50;0.50;;;;;;;25.52;34.68;98791.45;1910400;73;28011;-54
2023/03/26 09:33:10;;;;;;;0.60;0.60;;;;;;;25.47;35.12;98785.92;1919018;73;28070;-56
2023/03/26 09:36:23;;;;;;;1.35;0.55;;;;;;;25.43;35.27;98762.25;1923343;73;28083;-54
2023/03/26 09:39:29;;;;;;;1.20;0.90;;;;;;;25.46;35.46;98775.50;1914986;73;28222;-58
2023/03/26 09:42:35;;;;;;;0.78;0.78;;;;;;;25.48;35.55;98754.05;1912970;73;28064;-55
2023/03/26 09:45:35;;;;;;;0.60;0.60;;;;;;;25.49;35.72;98752.94;1924660;73;28016;-53
2023/03/26 09:48:42;;;;;;;0.75;0.75;;;;;;;25.50;35.80;98773.02;1902832;73;28106;-53
2023/03/26 09:51:36;;;;;;;2.60;0.75;;;;;;;25.48;35.85;98777.43;1905469;73;28190;-55
2023/03/26 09:54:54;;;;;;;0.65;0.65;;;;;;;25.50;35.92;98770.27;1914296;74;28249;-51
2023/03/26 09:57:56;;;;;;;0.72;0.72;;;;;;;25.49;35.97;98767.23;1866754;73;28002;-54
2023/03/26 10:01:04;;;;;;;0.70;0.70;;;;;;;25.46;36.05;98774.67;1919927;73;27733;-55
2023/03/26 10:04:11;;;;;;;1.10;0.82;;;;;;;25.48;36.07;98776.59;1911028;73;28151;-55
2023/03/26 10:07:02;;;;;;;0.67;0.67;;;;;;;25.46;36.05;98742.51;1854038;76;28271;-53
2023/03/26 10:10:10;;;;;;;0.60;0.60;;;;;;;25.45;36.10;98733.97;1866295;76;27759;-54
2023/03/26 10:13:16;;;;;;;0.62;0.62;;;;;;;25.48;36.08;98734.81;1819678;77;28266;-53
2023/03/26 10:16:17;;;;;;;0.70;0.70;;;;;;;25.46;36.11;98749.38;1815745;78;28033;-52
2023/03/26 10:19:44;;;;;;;0.60;0.60;;;;;;;25.46;36.15;98753.50;1862083;76;28263;-55
2023/03/26 10:22:36;;;;;;;0.57;0.55;;;;;;;25.47;36.12;98751.02;1848771;76;28208;-55
2023/03/26 10:25:42;;;;;;;0.70;0.70;;;;;;;25.45;36.13;98723.51;1863723;76;27703;-53
2023/03/26 10:28:39;;;;;;;0.55;0.55;;;;;;;25.44;36.14;98721.30;1793144;76;28070;-54
2023/03/26 10:31:46;;;;;;;0.70;0.70;;;;;;;25.46;36.15;98716.92;1886441;74;38495;-52
2023/03/26 10:34:40;;;;;;;0.53;0.53;;;;;;;25.45;36.11;98711.97;1865524;76;28180;-53
2023/03/26 10:37:44;;;;;;;0.80;0.80;;;;;;;25.43;36.14;98708.64;1864238;76;28231;-54
2023/03/26 10:40:59;;;;;;;0.50;0.50;;;;;;;25.45;36.13;98699.59;1861178;74;28091;-53
2023/03/26 10:44:06;;;;;;;0.85;0.85;;;;;;;25.44;36.09;98689.67;1878567;74;28030;-56
2023/03/26 10:47:12;;;;;;;0.65;0.65;;;;;;;25.44;36.14;98683.37;1883216;74;28094;-53
2023/03/26 10:50:25;;;;;;;0.45;0.45;;;;;;;25.43;36.12;98690.77;1854459;75;28188;-54
2023/03/26 10:53:35;;;;;;;0.60;0.60;;;;;;;25.44;36.12;98667.68;1852670;75;28188;-51
2023/03/26 10:56:27;;;;;;;0.70;0.70;;;;;;;25.46;36.10;98660.02;1887129;74;38457;-60
2023/03/26 10:59:17;;;;;;;0.50;0.50;;;;;;;25.43;36.08;98664.64;1886950;74;28184;-64
2023/03/26 11:02:22;;;;;;;0.47;0.47;;;;;;;25.46;36.14;98668.27;1877490;74;28171;-63
2023/03/26 11:05:25;;;;;;;0.50;0.50;;;;;;;25.56;36.06;98668.25;1832434;76;28202;-63
2023/03/26 11:08:22;;;;;;;1.02;0.65;;;;;;;25.68;35.91;98653.69;1849088;76;28087;-63
2023/03/26 11:11:19;;;;;;;0.60;0.60;;;;;;;25.78;35.77;98652.31;1870353;75;28004;-64
2023/03/26 11:14:26;;;;;;;0.50;0.50;;;;;;;25.92;35.61;98659.45;1839256;76;28216;-65
2023/03/26 11:17:22;;;;;;;0.60;0.60;;;;;;;26.05;35.36;98657.50;1837631;77;28216;-53
2023/03/26 11:20:30;;;;;;;0.70;0.70;;;;;;;25.93;35.29;98668.80;1871137;76;28007;-61
2023/03/26 11:23:37;;;;;;;0.90;0.80;;;;;;;25.79;35.43;98653.95;1868421;75;28027;-63
2023/03/26 11:26:51;;;;;;;0.62;0.60;;;;;;;25.63;35.58;98657.80;1869492;75;28081;-62
2023/03/26 11:29:51;;;;;;;0.70;0.70;;;;;;;25.57;35.64;98660.29;1873125;75;28065;-61
2023/03/26 11:32:49;;;;;;;0.55;0.55;;;;;;;25.49;35.80;98676.48;1858187;75;28078;-61
2023/03/26 11:35:40;;;;;;;0.62;0.62;;;;;;;25.49;35.86;98651.19;1838678;77;28244;-61
2023/03/26 11:38:42;;;;;;;0.47;0.47;;;;;;;25.51;35.82;98653.11;1847321;77;27680;-61
2023/03/26 11:41:32;;;;;;;0.53;0.53;;;;;;;25.54;35.87;98662.20;1828558;77;28135;-57
2023/03/26 11:44:29;;;;;;;0.93;0.93;;;;;;;25.52;35.96;98658.08;1807471;78;28331;-58
2023/03/26 11:47:20;;;;;;;1.20;1.10;;;;;;;25.51;36.09;98650.36;1859575;75;28166;-61
2023/03/26 11:50:11;;;;;;;1.32;0.90;;;;;;;25.50;36.19;98645.98;1853228;77;31210;-57
2023/03/26 11:53:03;;;;;;;0.93;0.93;;;;;;;25.48;36.22;98631.69;1851186;77;28291;-58
2023/03/26 11:56:13;;;;;;;0.72;0.72;;;;;;;25.48;36.24;98630.31;1850054;77;28160;-58
2023/03/26 11:59:06;;;;;;;0.80;0.80;;;;;;;25.51;36.16;98632.49;1881081;75;27982;-53
2023/03/26 12:02:06;;;;;;;0.62;0.62;;;;;;;25.45;36.26;98632.23;1880210;75;28147;-55
2023/03/26 12:04:58;;;;;;;0.65;0.65;;;;;;;25.44;36.31;98636.06;1834055;77;28252;-52
2023/03/26 12:07:59;;;;;;;0.93;0.80;;;;;;;25.42;36.36;98640.98;1847601;77;27754;-52
2023/03/26 12:10:53;;;;;;;1.60;0.50;;;;;;;25.42;36.42;98635.48;1824268;77;28189;-54
2023/03/26 12:13:56;;;;;;;0.80;0.80;;;;;;;25.39;36.45;98631.35;1821316;78;28290;-54
2023/03/26 12:17:06;;;;;;;0.80;0.80;;;;;;;25.37;36.50;98637.67;1856890;76;28024;-52
2023/03/26 12:19:55;;;;;;;0.72;0.72;;;;;;;25.35;36.54;98626.14;1831501;76;29030;-54
2023/03/26 12:22:45;;;;;;;0.70;0.70;;;;;;;25.32;36.58;98607.43;1860310;75;28171;-49
2023/03/26 12:25:37;;;;;;;0.70;0.70;;;;;;;25.30;36.58;98585.44;1868645;75;28036;-51
2023/03/26 12:28:29;;;;;;;1.05;0.70;;;;;;;25.30;36.63;98557.94;1879449;74;28430;-51
2023/03/26 12:31:19;;;;;;;0.68;0.68;;;;;;;25.31;36.65;98555.48;1922185;74;28116;-52
2023/03/26 12:34:14;;;;;;;1.20;0.60;;;;;;;25.31;36.63;98556.86;1892674;74;28165;-50
2023/03/26 12:37:04;;;;;;;0.50;0.50;;;;;;;25.30;36.63;98555.19;1928184;73;28574;-50
2023/03/26 12:39:55;;;;;;;0.60;0.60;;;;;;;25.26;36.69;98568.67;1860378;75;28234;-54
2023/03/26 12:42:46;;;;;;;0.70;0.70;;;;;;;25.26;36.63;98565.92;1889198;75;28249;-51
2023/03/26 12:45:40;;;;;;;0.50;0.50;;;;;;;25.24;36.70;98568.67;1916251;73;28103;-52
2023/03/26 12:48:29;;;;;;;0.60;0.60;;;;;;;25.29;36.73;98550.81;1867596;75;28034;-50
2023/03/26 12:51:32;;;;;;;0.80;0.80;;;;;;;25.42;36.56;98551.63;1857641;76;28272;-51
2023/03/26 12:54:31;;;;;;;1.92;0.80;;;;;;;25.50;36.41;98557.16;1892537;75;28563;-51
2023/03/26 12:57:29;;;;;;;0.82;0.82;;;;;;;25.55;36.20;98564.03;1885395;75;27828;-51
2023/03/26 13:00:29;;;;;;;0.50;0.50;;;;;;;25.57;36.16;98551.66;1874723;75;28209;-50
2023/03/26 13:03:30;;;;;;;2.80;0.70;;;;;;;25.56;36.01;98545.87;1937463;73;28169;-50
2023/03/26 13:06:36;;;;;;;1.00;0.90;;;;;;;25.56;36.03;98534.87;1857774;75;28259;-57
2023/03/26 13:09:34;;;;;;;1.15;1.02;;;;;;;25.52;35.81;98537.91;1907459;74;28428;-58
2023/03/26 13:12:41;;;;;;;1.75;0.78;;;;;;;25.47;35.57;98542.03;1925092;74;28142;-59
2023/03/26 13:15:39;;;;;;;0.70;0.70;;;;;;;25.46;35.24;98540.40;1940310;73;28174;-57
2023/03/26 13:18:36;;;;;;;0.80;0.80;;;;;;;25.36;35.17;98548.06;1911149;74;28061;-58
2023/03/26 13:21:33;;;;;;;0.85;0.85;;;;;;;25.34;35.17;98567.31;1940330;73;28114;-55
2023/03/26 13:24:25;;;;;;;1.98;0.88;;;;;;;25.28;34.88;98595.34;1893874;75;28064;-55
2023/03/26 13:27:40;;;;;;;0.60;0.60;;;;;;;25.24;34.73;98590.66;1875156;75;28118;-56
2023/03/26 13:30:37;;;;;;;0.90;0.90;;;;;;;25.26;34.63;98640.69;1858419;76;27887;-51
2023/03/26 13:33:50;;;;;;;0.90;0.90;;;;;;;25.19;35.15;98639.59;1874564;75;28259;-55
2023/03/26 13:37:00;;;;;;;0.70;0.70;;;;;;;25.18;35.24;98611.01;1927822;74;28131;-54
2023/03/26 13:40:24;;;;;;;0.50;0.50;;;;;;;25.19;35.37;98626.38;1867199;76;28165;-53
2023/03/26 13:43:32;;;;;;;1.10;0.70;;;;;;;25.20;35.42;98639.88;1906550;73;28078;-55
2023/03/26 13:46:42;;;;;;;0.90;0.78;;;;;;;25.20;35.35;98624.76;1896612;75;28507;-54
2023/03/26 13:49:36;;;;;;;0.88;0.60;;;;;;;25.21;35.44;98615.94;1887093;75;27726;-58
2023/03/26 13:52:27;;;;;;;0.40;0.40;;;;;;;25.20;35.62;98601.94;1886939;75;28154;-60
2023/03/26 13:55:30;;;;;;;0.42;0.42;;;;;;;25.24;35.55;98600.28;1885138;75;28136;-58